createdAt,value
2022-10-10T00:01:31.386Z,39.07
2022-10-10T00:04:05.972Z,38.40
2022-10-10T00:06:37.610Z,40.03
2022-10-10T00:09:09.875Z,42.60
2022-10-10T00:11:41.787Z,41.20
2022-10-10T00:14:13.276Z,39.23
2022-10-10T00:16:45.276Z,39.63
2022-10-10T00:19:18.769Z,38.80
2022-10-10T00:21:50.016Z,41.43
2022-10-10T00:24:21.097Z,39.40
2022-10-10T00:26:52.564Z,39.43
2022-10-10T00:29:23.849Z,38.77
2022-10-10T00:31:55.145Z,40.20
2022-10-10T00:34:28.187Z,38.60
2022-10-10T00:36:59.613Z,39.03
2022-10-10T00:39:30.742Z,40.03
2022-10-10T00:42:02.922Z,43.27
2022-10-10T00:44:34.018Z,40.40
2022-10-10T00:47:05.077Z,41.97
2022-10-10T00:49:42.521Z,41.73
2022-10-10T00:52:14.517Z,41.40
2022-10-10T00:54:45.246Z,42.33
2022-10-10T00:57:17.858Z,40.33
2022-10-10T00:59:50.322Z,41.33
2022-10-10T01:02:20.884Z,39.90
2022-10-10T01:04:54.084Z,39.97
2022-10-10T01:07:29.070Z,42.93
2022-10-10T01:10:02.854Z,41.70
2022-10-10T01:12:44.806Z,42.63
2022-10-10T01:15:24.693Z,41.77
2022-10-10T01:18:00.681Z,39.17
2022-10-10T01:20:53.219Z,41.73
2022-10-10T01:23:55.440Z,45.53
2022-10-10T01:26:51.749Z,45.93
2022-10-10T01:29:32.735Z,42.33
2022-10-10T01:32:08.177Z,41.87
2022-10-10T01:34:49.165Z,39.13
2022-10-10T01:37:23.907Z,44.23
2022-10-10T01:40:04.009Z,42.50
2022-10-10T01:42:40.572Z,45.57
2022-10-10T01:45:15.350Z,40.90
2022-10-10T01:47:48.338Z,43.50
2022-10-10T01:50:24.629Z,41.27
2022-10-10T01:53:05.926Z,42.30
2022-10-10T01:55:53.389Z,44.23
2022-10-10T01:58:51.922Z,42.63
2022-10-10T02:01:29.415Z,36.57
2022-10-10T02:04:10.645Z,40.07
2022-10-10T02:06:47.571Z,39.27
2022-10-10T02:09:26.477Z,39.70
2022-10-10T02:11:59.391Z,48.33
2022-10-10T02:14:35.073Z,43.03
2022-10-10T02:17:19.975Z,42.57
2022-10-10T02:19:54.297Z,39.90
2022-10-10T02:22:28.690Z,40.23
2022-10-10T02:25:01.459Z,38.57
2022-10-10T02:27:39.435Z,38.00
2022-10-10T02:30:12.104Z,39.97
2022-10-10T02:32:49.782Z,38.37
2022-10-10T02:35:23.510Z,37.87
2022-10-10T02:37:57.044Z,37.60
2022-10-10T02:40:32.194Z,37.20
2022-10-10T02:43:05.473Z,43.00
2022-10-10T02:45:37.148Z,44.23
2022-10-10T02:48:10.837Z,40.13
2022-10-10T02:50:41.809Z,41.17
2022-10-10T02:53:13.236Z,40.83
2022-10-10T02:55:44.775Z,43.53
2022-10-10T02:58:16.031Z,40.67
2022-10-10T03:00:47.061Z,46.87
2022-10-10T03:03:20.127Z,44.13
2022-10-10T03:05:52.705Z,42.20
2022-10-10T03:08:23.792Z,47.13
2022-10-10T03:10:59.715Z,44.87
2022-10-10T03:13:30.824Z,43.67
2022-10-10T03:16:02.023Z,43.37
2022-10-10T03:18:35.825Z,46.70
2022-10-10T03:21:09.385Z,44.93
2022-10-10T03:23:40.606Z,47.63
2022-10-10T03:26:14.548Z,46.33
2022-10-10T03:28:45.821Z,51.13
2022-10-10T03:31:17.173Z,52.50
2022-10-10T03:33:50.918Z,53.70
2022-10-10T03:36:22.522Z,54.53
2022-10-10T03:38:53.621Z,55.73
2022-10-10T03:41:25.092Z,58.33
2022-10-10T03:43:56.190Z,56.00
2022-10-10T03:46:28.578Z,54.77
2022-10-10T03:49:02.928Z,55.40
2022-10-10T03:51:35.908Z,58.57
2022-10-10T03:54:07.272Z,57.63
2022-10-10T03:56:38.813Z,57.67
2022-10-10T03:59:10.465Z,57.07
2022-10-10T04:01:42.385Z,60.00
2022-10-10T04:04:18.518Z,63.13
2022-10-10T04:06:49.978Z,60.03
2022-10-10T04:09:21.709Z,59.60
2022-10-10T04:11:52.753Z,62.50
2022-10-10T04:14:24.040Z,62.13
2022-10-10T04:16:58.644Z,61.13
2022-10-10T04:19:34.197Z,56.43
2022-10-10T04:22:11.224Z,56.67
2022-10-10T04:24:42.287Z,59.40
2022-10-10T04:27:13.717Z,59.13
2022-10-10T04:29:44.810Z,59.37
2022-10-10T04:32:15.986Z,56.43
2022-10-10T04:34:49.040Z,57.43
2022-10-10T04:37:20.510Z,55.93
2022-10-10T04:39:51.758Z,58.37
2022-10-10T04:42:23.350Z,57.90
2022-10-10T04:44:54.393Z,56.83
2022-10-10T04:47:25.896Z,55.53
2022-10-10T04:49:59.946Z,54.07
2022-10-10T04:52:30.823Z,56.40
2022-10-10T04:55:02.164Z,57.90
2022-10-10T04:57:33.786Z,52.63
2022-10-10T05:00:05.377Z,53.83
2022-10-10T05:02:36.849Z,56.80
2022-10-10T05:05:11.543Z,52.90
2022-10-10T05:07:42.564Z,58.37
2022-10-10T05:10:13.968Z,57.60
2022-10-10T05:12:45.021Z,60.83
2022-10-10T05:15:16.045Z,59.83
2022-10-10T05:17:47.144Z,56.93
2022-10-10T05:20:20.791Z,60.97
2022-10-10T05:22:52.386Z,58.07
2022-10-10T05:25:23.590Z,59.87
2022-10-10T05:27:55.695Z,57.17
2022-10-10T05:30:26.881Z,56.33
2022-10-10T05:32:59.147Z,56.47
2022-10-10T05:35:33.182Z,59.93
2022-10-10T05:38:04.798Z,54.57
2022-10-10T05:40:35.884Z,59.67
2022-10-10T05:43:07.480Z,55.73
2022-10-10T05:45:38.676Z,54.30
2022-10-10T05:48:11.993Z,57.10
2022-10-10T05:50:51.187Z,56.50
2022-10-10T05:53:22.488Z,55.90
2022-10-10T05:55:53.897Z,54.97
2022-10-10T05:58:27.079Z,52.60
2022-10-10T06:00:58.126Z,54.93
2022-10-10T06:03:29.715Z,53.80
2022-10-10T06:06:02.865Z,56.10
2022-10-10T06:08:34.513Z,51.70
2022-10-10T06:11:10.501Z,54.23
2022-10-10T06:13:42.884Z,55.80
2022-10-10T06:16:14.804Z,57.03
2022-10-10T06:18:45.853Z,57.03
2022-10-10T06:21:20.417Z,52.83
2022-10-10T06:23:52.295Z,54.13
2022-10-10T06:26:23.715Z,52.43
2022-10-10T06:28:55.187Z,54.87
2022-10-10T06:31:26.990Z,55.30
2022-10-10T06:33:58.658Z,56.97
2022-10-10T06:36:32.340Z,55.43
2022-10-10T06:39:04.062Z,55.17
2022-10-10T06:41:35.832Z,53.20
2022-10-10T06:44:07.991Z,53.43
2022-10-10T06:46:39.952Z,53.97
2022-10-10T06:49:11.988Z,55.07
2022-10-10T06:51:44.917Z,54.90
2022-10-10T06:54:16.066Z,55.37
2022-10-10T06:56:47.332Z,53.53
2022-10-10T06:59:18.830Z,56.80
2022-10-10T07:01:50.045Z,55.47
2022-10-10T07:04:21.132Z,58.33
2022-10-10T07:06:54.282Z,54.93
2022-10-10T07:09:25.352Z,57.50
2022-10-10T07:11:58.863Z,55.27
2022-10-10T07:14:30.085Z,60.30
2022-10-10T07:17:01.364Z,54.83
2022-10-10T07:19:32.250Z,56.93
2022-10-10T07:22:06.948Z,58.37
2022-10-10T07:24:39.543Z,56.10
2022-10-10T07:27:11.892Z,56.00
2022-10-10T07:29:42.872Z,62.87
2022-10-10T07:32:15.655Z,61.20
2022-10-10T07:34:46.692Z,60.33
2022-10-10T07:37:20.452Z,58.73
2022-10-10T07:39:51.509Z,60.07
2022-10-10T07:42:22.303Z,65.53
2022-10-10T07:44:53.343Z,61.57
2022-10-10T07:47:24.477Z,60.60
2022-10-10T07:49:56.353Z,64.57
2022-10-10T07:52:29.322Z,61.97
2022-10-10T07:55:00.434Z,60.93
2022-10-10T07:57:35.849Z,60.37
2022-10-10T08:00:08.966Z,60.53
2022-10-10T08:02:40.246Z,57.70
2022-10-10T08:05:13.606Z,62.43
2022-10-10T08:07:47.332Z,57.53
2022-10-10T08:10:17.886Z,59.27
2022-10-10T08:12:48.933Z,62.40
2022-10-10T08:15:20.103Z,57.77
2022-10-10T08:17:51.863Z,60.23
2022-10-10T08:20:23.962Z,57.80
2022-10-10T08:22:57.379Z,58.77
2022-10-10T08:25:28.805Z,60.47
2022-10-10T08:27:59.804Z,57.13
2022-10-10T08:30:30.926Z,55.97
2022-10-10T08:33:02.252Z,57.13
2022-10-10T08:35:33.446Z,60.10
2022-10-10T08:38:06.513Z,58.20
2022-10-10T08:40:38.310Z,61.97
2022-10-10T08:43:12.391Z,61.77
2022-10-10T08:45:45.087Z,64.00
2022-10-10T08:48:19.628Z,63.17
2022-10-10T08:50:55.693Z,59.97
2022-10-10T08:53:35.719Z,66.63
2022-10-10T08:56:10.212Z,65.83
2022-10-10T08:58:46.938Z,62.50
2022-10-10T09:01:23.856Z,66.03
2022-10-10T09:03:59.550Z,65.10
2022-10-10T09:06:58.422Z,66.90
2022-10-10T09:09:40.880Z,68.40
2022-10-10T09:12:27.540Z,63.87
2022-10-10T09:15:05.692Z,68.20
2022-10-10T09:17:44.469Z,69.63
2022-10-10T09:20:30.325Z,69.50
2022-10-10T09:23:05.345Z,70.27
2022-10-10T09:25:46.318Z,66.80
2022-10-10T09:28:23.522Z,68.60
2022-10-10T09:30:58.984Z,68.33
2022-10-10T09:33:38.965Z,69.93
2022-10-10T09:36:16.320Z,72.07
2022-10-10T09:38:52.097Z,68.97
2022-10-10T09:41:34.702Z,68.57
2022-10-10T09:44:10.435Z,68.67
2022-10-10T09:46:41.900Z,68.27
2022-10-10T09:49:17.050Z,66.70
2022-10-10T09:51:49.002Z,62.67
2022-10-10T09:54:22.856Z,67.73
2022-10-10T09:56:59.094Z,69.63
2022-10-10T09:59:51.272Z,68.67
2022-10-10T10:02:24.593Z,70.17
2022-10-10T10:04:57.668Z,66.07
2022-10-10T10:07:32.170Z,67.17
2022-10-10T10:10:05.628Z,68.80
2022-10-10T10:12:45.132Z,66.30
2022-10-10T10:15:23.209Z,68.17
2022-10-10T10:18:13.664Z,68.07
2022-10-10T10:20:46.690Z,71.97
2022-10-10T10:23:28.189Z,68.53
2022-10-10T10:26:03.325Z,70.40
2022-10-10T10:28:44.470Z,68.57
2022-10-10T10:31:24.672Z,71.77
2022-10-10T10:34:06.983Z,73.83
2022-10-10T10:36:48.981Z,72.37
2022-10-10T10:39:33.674Z,75.00
2022-10-10T10:42:13.179Z,68.90
2022-10-10T10:44:52.997Z,73.57
2022-10-10T10:47:41.133Z,74.87
2022-10-10T10:50:29.516Z,76.47
2022-10-10T10:53:11.336Z,73.80
2022-10-10T10:55:49.368Z,75.63
2022-10-10T10:59:35.746Z,70.17
2022-10-10T11:02:03.427Z,72.37
2022-10-10T11:05:24.798Z,75.03
2022-10-10T11:08:03.151Z,68.30
2022-10-10T11:10:40.097Z,69.93
2022-10-10T11:13:17.408Z,66.60
2022-10-10T11:16:05.973Z,72.50
2022-10-10T11:18:47.466Z,68.67
2022-10-10T11:21:24.394Z,69.93
2022-10-10T11:24:01.208Z,67.13
2022-10-10T11:26:36.185Z,67.67
2022-10-10T11:29:13.606Z,67.90
2022-10-10T11:31:50.853Z,66.27
2022-10-10T11:34:28.194Z,71.87
2022-10-10T11:37:05.070Z,72.20
2022-10-10T11:39:43.113Z,70.37
2022-10-10T11:42:22.345Z,71.53
2022-10-10T11:44:59.172Z,67.77
2022-10-10T11:47:35.373Z,67.27
2022-10-10T11:50:19.735Z,67.47
2022-10-10T11:52:58.704Z,68.83
2022-10-10T11:55:36.517Z,71.90
2022-10-10T11:58:32.154Z,73.07
2022-10-10T12:01:09.786Z,69.30
2022-10-10T12:03:40.979Z,73.57
2022-10-10T12:06:23.047Z,69.77
2022-10-10T12:09:00.548Z,70.57
2022-10-10T12:11:38.081Z,69.27
2022-10-10T12:14:13.199Z,73.37
2022-10-10T12:16:44.577Z,70.20
2022-10-10T12:19:22.984Z,72.17
2022-10-10T12:22:05.804Z,71.37
2022-10-10T12:24:42.756Z,71.10
2022-10-10T12:27:49.223Z,69.37
2022-10-10T12:30:29.040Z,69.67
2022-10-10T12:33:00.501Z,65.80
2022-10-10T12:35:42.898Z,64.93
2022-10-10T12:38:22.871Z,70.67
2022-10-10T12:41:20.828Z,73.33
2022-10-10T12:44:21.971Z,66.73
2022-10-10T12:47:59.793Z,64.77
2022-10-10T12:50:30.055Z,69.73
2022-10-10T12:53:03.305Z,70.00
2022-10-10T12:55:46.958Z,69.47
2022-10-10T12:58:26.978Z,65.50
2022-10-10T13:01:01.298Z,70.80
2022-10-10T13:03:37.694Z,66.47
2022-10-10T13:06:17.113Z,66.77
2022-10-10T13:08:49.107Z,64.73
2022-10-10T13:11:22.064Z,66.53
2022-10-10T13:13:54.448Z,66.40
2022-10-10T13:16:31.345Z,65.70
2022-10-10T13:19:05.176Z,67.23
2022-10-10T13:21:38.177Z,67.67
2022-10-10T13:24:18.097Z,66.87
2022-10-10T13:26:53.306Z,63.60
2022-10-10T13:29:28.609Z,67.13
2022-10-10T13:32:03.473Z,65.83
2022-10-10T13:34:36.704Z,66.40
2022-10-10T13:37:09.226Z,62.53
2022-10-10T13:39:42.802Z,68.40
2022-10-10T13:42:30.129Z,65.97
2022-10-10T13:45:04.240Z,69.23
2022-10-10T13:47:56.563Z,64.90
2022-10-10T13:50:33.239Z,65.90
2022-10-10T13:53:26.655Z,63.83
2022-10-10T13:56:05.107Z,65.47
2022-10-10T13:58:43.854Z,66.77
2022-10-10T14:01:38.087Z,64.50
2022-10-10T14:04:29.353Z,65.07
2022-10-10T14:07:04.876Z,63.60
2022-10-10T14:09:40.005Z,68.53
2022-10-10T14:12:18.607Z,71.17
2022-10-10T14:14:52.971Z,74.97
2022-10-10T14:17:24.164Z,69.50
2022-10-10T14:19:56.056Z,67.20
2022-10-10T14:22:28.226Z,73.20
2022-10-10T14:25:00.720Z,72.97
2022-10-10T14:27:36.850Z,69.30
2022-10-10T14:30:16.497Z,65.43
2022-10-10T14:32:47.028Z,66.10
2022-10-10T14:35:18.537Z,64.53
2022-10-10T14:37:50.072Z,62.53
2022-10-10T14:40:23.760Z,62.77
2022-10-10T14:42:54.809Z,63.27
2022-10-10T14:45:28.366Z,67.97
2022-10-10T14:47:59.948Z,64.10
2022-10-10T14:50:34.691Z,62.27
2022-10-10T14:53:06.271Z,64.37
2022-10-10T14:55:37.842Z,62.37
2022-10-10T14:58:08.854Z,61.33
2022-10-10T15:00:42.131Z,65.13
2022-10-10T15:03:13.275Z,64.17
2022-10-10T15:05:44.929Z,63.60
2022-10-10T15:08:17.809Z,67.33
2022-10-10T15:10:49.605Z,65.20
2022-10-10T15:13:21.633Z,69.50
2022-10-10T15:15:54.471Z,67.43
2022-10-10T15:18:52.831Z,62.23
2022-10-10T15:21:17.571Z,61.23
2022-10-10T15:23:49.045Z,60.57
2022-10-10T15:26:20.078Z,65.30
2022-10-10T15:28:52.150Z,62.50
2022-10-10T15:31:31.193Z,63.13
2022-10-10T15:34:02.848Z,61.43
2022-10-10T15:36:34.099Z,61.20
2022-10-10T15:39:05.251Z,61.23
2022-10-10T15:41:36.307Z,59.17
2022-10-10T15:44:07.750Z,62.43
2022-10-10T15:46:40.725Z,63.27
2022-10-10T15:49:11.850Z,62.23
2022-10-10T15:51:47.544Z,61.63
2022-10-10T15:54:19.984Z,63.57
2022-10-10T15:56:51.981Z,61.13
2022-10-10T15:59:23.250Z,59.33
2022-10-10T16:01:56.742Z,63.13
2022-10-10T16:04:27.840Z,59.57
2022-10-10T16:07:24.141Z,60.90
2022-10-10T16:09:50.072Z,62.17
2022-10-10T16:12:21.125Z,62.77
2022-10-10T16:14:52.280Z,64.73
2022-10-10T16:17:26.962Z,59.40
2022-10-10T16:19:58.433Z,60.20
2022-10-10T16:22:29.622Z,60.30
2022-10-10T16:27:52.484Z,59.17
2022-10-10T16:30:23.764Z,58.63
2022-10-10T16:32:57.412Z,58.00
2022-10-10T16:35:29.146Z,52.47
2022-10-10T16:38:01.453Z,51.77
2022-10-10T16:40:33.659Z,49.70
2022-10-10T16:43:04.869Z,51.10
2022-10-10T16:45:36.085Z,49.67
2022-10-10T16:48:10.153Z,52.13
2022-10-10T16:50:43.023Z,50.47
2022-10-10T16:53:14.418Z,49.83
2022-10-10T16:55:46.982Z,49.30
2022-10-10T16:58:18.567Z,48.83
2022-10-10T17:00:50.610Z,45.40
2022-10-10T17:03:25.892Z,45.10
2022-10-10T17:06:05.919Z,46.10
2022-10-10T17:08:37.731Z,40.30
2022-10-10T17:11:09.523Z,46.63
2022-10-10T17:13:41.014Z,44.57
2022-10-10T17:16:53.352Z,42.93
2022-10-10T17:19:07.963Z,42.43
2022-10-10T17:21:39.007Z,42.90
2022-10-10T17:24:10.825Z,42.20
2022-10-10T17:26:42.506Z,45.03
2022-10-10T17:29:14.616Z,42.83
2022-10-10T17:31:45.752Z,41.10
2022-10-10T17:34:19.395Z,39.00
2022-10-10T17:36:50.328Z,39.90
2022-10-10T17:39:21.470Z,35.97
2022-10-10T17:41:53.273Z,38.27
2022-10-10T17:44:25.766Z,38.80
2022-10-10T17:46:56.792Z,39.37
2022-10-10T17:49:30.743Z,38.57
2022-10-10T17:52:01.744Z,37.73
2022-10-10T17:54:32.754Z,38.10
2022-10-10T17:57:04.537Z,36.07
2022-10-10T17:59:35.484Z,40.30
2022-10-10T18:02:07.036Z,39.27
2022-10-10T18:04:42.233Z,39.70
2022-10-10T18:07:13.862Z,34.63
2022-10-10T18:09:45.061Z,35.50
2022-10-10T18:12:17.160Z,37.33
2022-10-10T18:14:48.423Z,36.27
2022-10-10T18:17:19.897Z,38.97
2022-10-10T18:19:52.968Z,41.03
2022-10-10T18:22:26.182Z,39.23
2022-10-10T18:24:57.277Z,44.47
2022-10-10T18:27:31.245Z,39.63
2022-10-10T18:30:02.922Z,41.47
2022-10-10T18:32:33.885Z,40.10
2022-10-10T18:35:07.269Z,39.70
2022-10-10T18:37:39.689Z,39.83
2022-10-10T18:40:12.130Z,41.57
2022-10-10T18:42:46.347Z,40.90
2022-10-10T18:45:17.398Z,38.67
2022-10-10T18:47:48.829Z,36.37
2022-10-10T18:50:22.495Z,38.57
2022-10-10T18:52:55.061Z,39.73
2022-10-10T18:55:31.079Z,35.77
2022-10-10T18:58:03.620Z,36.10
2022-10-10T19:00:35.184Z,36.47
2022-10-10T19:03:07.103Z,36.97
2022-10-10T19:05:43.247Z,34.90
2022-10-10T19:08:14.999Z,37.43
2022-10-10T19:10:48.499Z,36.00
2022-10-10T19:13:20.390Z,37.43
2022-10-10T19:15:52.632Z,35.70
2022-10-10T19:18:24.410Z,37.17
2022-10-10T19:21:02.729Z,39.97
2022-10-10T19:23:34.384Z,38.97
2022-10-10T19:26:06.729Z,43.73
2022-10-10T19:28:38.838Z,42.83
2022-10-10T19:31:11.999Z,40.83
2022-10-10T19:33:44.098Z,38.63
2022-10-10T19:36:17.512Z,39.17
2022-10-10T19:38:49.332Z,41.07
2022-10-10T19:41:21.579Z,40.10
2022-10-10T19:43:54.878Z,40.43
2022-10-10T19:46:27.893Z,40.53
2022-10-10T19:49:00.713Z,36.27
2022-10-10T19:51:34.927Z,43.60
2022-10-10T19:54:06.123Z,36.47
2022-10-10T19:56:37.660Z,36.77
2022-10-10T19:59:09.240Z,39.53
2022-10-10T20:01:40.803Z,35.03
2022-10-10T20:04:12.488Z,41.47
2022-10-10T20:06:45.448Z,39.77
2022-10-10T20:09:16.301Z,36.57
2022-10-10T20:11:47.372Z,39.87
2022-10-10T20:14:19.095Z,37.60
2022-10-10T20:16:50.790Z,38.87
2022-10-10T20:19:22.028Z,36.27
2022-10-10T20:21:55.897Z,37.77
2022-10-10T20:24:27.131Z,36.13
2022-10-10T20:26:58.746Z,35.47
2022-10-10T20:29:31.117Z,35.63
2022-10-10T20:32:02.757Z,35.57
2022-10-10T20:34:34.017Z,34.07
2022-10-10T20:37:07.582Z,33.17
2022-10-10T20:39:38.479Z,33.17
2022-10-10T20:42:09.555Z,34.90
2022-10-10T20:44:40.752Z,33.53
2022-10-10T20:47:12.001Z,35.93
2022-10-10T20:49:43.022Z,36.23
2022-10-10T20:52:20.398Z,36.70
2022-10-10T20:54:52.339Z,35.73
2022-10-10T20:57:23.400Z,37.03
2022-10-10T20:59:54.631Z,33.43
2022-10-10T21:02:25.884Z,34.97
2022-10-10T21:04:57.356Z,29.73
2022-10-10T21:07:31.874Z,29.47
2022-10-10T21:10:03.028Z,27.93
2022-10-10T21:12:35.250Z,30.53
2022-10-10T21:15:06.201Z,26.70
2022-10-10T21:17:38.013Z,26.80
2022-10-10T21:20:10.279Z,24.47
2022-10-10T21:22:44.228Z,25.90
2022-10-10T21:25:15.657Z,23.63
2022-10-10T21:27:46.689Z,21.23
2022-10-10T21:30:18.025Z,19.73
2022-10-10T21:32:49.121Z,22.40
2022-10-10T21:35:20.254Z,16.77
2022-10-10T21:37:53.296Z,18.00
2022-10-10T21:40:24.420Z,17.67
2022-10-10T21:42:55.564Z,18.33
2022-10-10T21:45:26.594Z,18.60
2022-10-10T21:47:57.477Z,18.73
2022-10-10T21:50:29.683Z,18.43
2022-10-10T21:53:02.949Z,18.67
2022-10-10T21:55:34.025Z,17.53
2022-10-10T21:58:04.538Z,19.63
2022-10-10T22:00:35.653Z,18.73
2022-10-10T22:03:06.857Z,19.80
2022-10-10T22:05:38.681Z,18.13
2022-10-10T22:08:11.848Z,19.37
2022-10-10T22:10:46.274Z,19.70
2022-10-10T22:13:17.388Z,19.50
2022-10-10T22:15:49.106Z,16.97
2022-10-10T22:18:21.089Z,17.80
2022-10-10T22:20:52.401Z,19.13
2022-10-10T22:23:26.422Z,18.27
2022-10-10T22:25:57.427Z,18.27
2022-10-10T22:28:28.749Z,17.83
2022-10-10T22:31:00.289Z,19.20
2022-10-10T22:33:31.344Z,16.33
2022-10-10T22:36:02.808Z,17.47
2022-10-10T22:38:36.476Z,17.00
2022-10-10T22:41:08.355Z,15.17
2022-10-10T22:43:39.785Z,13.47
2022-10-10T22:46:11.339Z,13.13
2022-10-10T22:48:42.442Z,12.47
2022-10-10T22:51:17.503Z,12.23
2022-10-10T22:53:52.160Z,12.03
2022-10-10T22:56:24.812Z,13.43
2022-10-10T22:58:56.184Z,11.47
2022-10-10T23:01:29.923Z,10.57
2022-10-10T23:04:04.368Z,9.97
2022-10-10T23:06:35.971Z,9.73
2022-10-10T23:09:09.254Z,9.13
2022-10-10T23:11:40.342Z,9.77
2022-10-10T23:14:13.364Z,9.93
2022-10-10T23:16:44.486Z,8.83
2022-10-10T23:19:15.562Z,8.80
2022-10-10T23:21:47.637Z,8.33
2022-10-10T23:24:21.287Z,9.67
2022-10-10T23:26:53.417Z,9.03
2022-10-10T23:29:24.442Z,9.97
2022-10-10T23:31:55.916Z,9.47
2022-10-10T23:34:27.016Z,12.23
2022-10-10T23:36:57.784Z,8.67
2022-10-10T23:39:31.000Z,9.40
2022-10-10T23:42:02.494Z,9.53
2022-10-10T23:44:33.372Z,12.10
2022-10-10T23:47:04.490Z,8.93
2022-10-10T23:49:36.122Z,8.97
2022-10-10T23:52:08.001Z,8.97
2022-10-10T23:54:42.157Z,7.93
2022-10-10T23:57:14.203Z,10.80
2022-10-10T23:59:46.260Z,7.73
